Time;durP1;ratioP1;P1;durP2;ratioP2;P2;SDS_P1;SDS_P2;PMS_P1;PMS_P2;Temp;Humidity;BMP_temperature;BMP_pressure;BME280_temperature;BME280_humidity;BME280_pressure;Samples;Min_cycle;Max_cycle;Signal;HPM_P1;HPM_P2
2023/07/27 00:00:10;;;;;;;11.25;7.18;;;;;;;;;;5035408;28;20049;-74
2023/07/27 00:02:36;;;;;;;12.57;7.25;;;;;;;;;;5040854;28;20042;-74
2023/07/27 00:05:03;;;;;;;10.65;6.75;;;;;;;;;;5043225;28;20041;-74
2023/07/27 00:07:29;;;;;;;11.75;7.25;;;;;;;;;;5052484;28;20116;-74
2023/07/27 00:09:56;;;;;;;10.38;6.97;;;;;;;;;;5055082;28;20076;-74
2023/07/27 00:12:22;;;;;;;11.27;6.88;;;;;;;;;;5053263;28;20052;-74
2023/07/27 00:14:48;;;;;;;11.55;7.22;;;;;;;;;;5052854;28;20084;-74
2023/07/27 00:17:15;;;;;;;10.80;7.05;;;;;;;;;;5034419;28;20056;-73
2023/07/27 00:19:41;;;;;;;12.57;7.38;;;;;;;;;;5040580;28;20063;-74
2023/07/27 00:22:07;;;;;;;11.50;7.60;;;;;;;;;;5045204;28;20073;-74
2023/07/27 00:24:33;;;;;;;14.90;7.47;;;;;;;;;;5034315;28;20050;-74
2023/07/27 00:26:59;;;;;;;11.10;7.50;;;;;;;;;;5039087;28;20143;-74
2023/07/27 00:29:25;;;;;;;11.18;7.47;;;;;;;;;;5054281;28;20040;-74
2023/07/27 00:31:51;;;;;;;13.40;7.90;;;;;;;;;;5054004;28;20124;-74
2023/07/27 00:34:18;;;;;;;11.77;7.28;;;;;;;;;;5053389;28;20479;-74
2023/07/27 00:36:44;;;;;;;10.07;7.20;;;;;;;;;;5051150;28;20172;-74
2023/07/27 00:39:13;;;;;;;10.95;7.40;;;;;;;;;;5054406;28;20120;-74
2023/07/27 00:41:42;;;;;;;12.30;6.95;;;;;;;;;;5053392;28;20063;-73
2023/07/27 00:44:09;;;;;;;11.68;7.13;;;;;;;;;;5052789;28;20075;-73
2023/07/27 00:46:38;;;;;;;11.18;7.78;;;;;;;;;;5053873;28;20041;-74
2023/07/27 00:49:04;;;;;;;10.85;7.45;;;;;;;;;;5053302;28;20056;-74
2023/07/27 00:51:38;;;;;;;11.02;7.22;;;;;;;;;;5046445;28;20049;-74
2023/07/27 00:54:05;;;;;;;10.80;7.30;;;;;;;;;;5034009;28;20488;-74
2023/07/27 00:56:31;;;;;;;9.75;6.97;;;;;;;;;;5036433;28;20435;-74
2023/07/27 00:59:00;;;;;;;13.23;7.25;;;;;;;;;;5038119;28;20045;-74
2023/07/27 01:01:26;;;;;;;13.48;7.03;;;;;;;;;;5033498;28;20049;-74
2023/07/27 01:03:53;;;;;;;10.68;7.28;;;;;;;;;;5032358;28;20057;-77
2023/07/27 01:06:19;;;;;;;10.27;7.03;;;;;;;;;;5040627;28;20214;-74
2023/07/27 01:08:45;;;;;;;12.85;7.03;;;;;;;;;;5033377;28;20498;-74
2023/07/27 01:11:30;;;;;;;10.95;7.50;;;;;;;;;;5032361;28;20054;-73
2023/07/27 01:14:08;;;;;;;10.68;7.38;;;;;;;;;;5032275;28;20408;-73
2023/07/27 01:16:39;;;;;;;12.77;7.50;;;;;;;;;;5033728;28;20044;-73
2023/07/27 01:19:23;;;;;;;9.63;6.75;;;;;;;;;;5031962;28;20053;-73
2023/07/27 01:21:55;;;;;;;10.27;6.47;;;;;;;;;;5032286;28;20037;-73
2023/07/27 01:24:27;;;;;;;12.85;6.68;;;;;;;;;;5033412;28;20045;-73
2023/07/27 01:27:06;;;;;;;11.30;7.38;;;;;;;;;;5047638;28;20037;-73
2023/07/27 01:30:05;;;;;;;10.45;6.95;;;;;;;;;;5046330;28;20052;-74
2023/07/27 01:32:33;;;;;;;9.07;6.30;;;;;;;;;;4999735;28;20061;-73
2023/07/27 01:35:01;;;;;;;9.57;6.13;;;;;;;;;;5032626;28;20046;-73
2023/07/27 01:37:29;;;;;;;9.75;7.05;;;;;;;;;;5052245;28;20061;-74
2023/07/27 01:39:56;;;;;;;10.27;7.05;;;;;;;;;;5046197;28;20053;-74
2023/07/27 01:42:24;;;;;;;10.20;7.13;;;;;;;;;;5053077;28;20045;-74
2023/07/27 01:44:51;;;;;;;9.57;6.53;;;;;;;;;;5047882;28;20060;-73
2023/07/27 01:47:17;;;;;;;10.88;6.88;;;;;;;;;;5045124;28;20120;-73
2023/07/27 01:49:45;;;;;;;10.68;6.80;;;;;;;;;;5052086;28;20068;-73
2023/07/27 01:52:12;;;;;;;10.15;6.75;;;;;;;;;;5052797;28;20056;-73
2023/07/27 01:54:38;;;;;;;8.80;6.07;;;;;;;;;;5051785;28;20483;-74
2023/07/27 01:57:05;;;;;;;10.27;6.57;;;;;;;;;;5032218;28;20137;-74
2023/07/27 01:59:32;;;;;;;9.93;6.28;;;;;;;;;;5033458;28;20069;-74
2023/07/27 02:01:58;;;;;;;8.38;6.15;;;;;;;;;;5035514;28;20075;-73
2023/07/27 02:04:25;;;;;;;8.77;6.32;;;;;;;;;;5050498;28;20499;-74
2023/07/27 02:06:51;;;;;;;11.57;6.93;;;;;;;;;;5057942;28;20120;-73
2023/07/27 02:09:17;;;;;;;11.07;6.82;;;;;;;;;;5053322;28;20045;-74
2023/07/27 02:11:46;;;;;;;9.88;6.72;;;;;;;;;;5043503;28;20049;-74
2023/07/27 02:14:21;;;;;;;8.63;6.30;;;;;;;;;;5037884;28;20044;-74
2023/07/27 02:16:53;;;;;;;11.20;6.50;;;;;;;;;;5052784;28;20045;-74
2023/07/27 02:19:21;;;;;;;12.25;6.60;;;;;;;;;;5045010;28;20514;-74
2023/07/27 02:21:47;;;;;;;10.07;6.85;;;;;;;;;;5031453;28;20403;-74
2023/07/27 02:24:14;;;;;;;8.80;6.13;;;;;;;;;;5036530;28;20127;-74
2023/07/27 02:26:41;;;;;;;9.90;6.38;;;;;;;;;;5046862;28;20045;-74
2023/07/27 02:29:07;;;;;;;11.45;6.90;;;;;;;;;;5050362;28;20053;-74
2023/07/27 02:31:33;;;;;;;10.88;6.72;;;;;;;;;;5055852;28;20044;-74
2023/07/27 02:33:59;;;;;;;9.93;6.80;;;;;;;;;;5056399;28;20041;-74
2023/07/27 02:36:25;;;;;;;8.10;5.97;;;;;;;;;;5054803;28;20051;-74
2023/07/27 02:38:51;;;;;;;9.85;6.38;;;;;;;;;;5056255;28;20075;-74
2023/07/27 02:41:17;;;;;;;9.27;6.43;;;;;;;;;;5048575;28;20403;-73
2023/07/27 02:43:43;;;;;;;10.57;7.07;;;;;;;;;;5055980;28;20099;-73
2023/07/27 02:46:09;;;;;;;9.85;6.53;;;;;;;;;;5054858;28;20051;-74
2023/07/27 02:48:36;;;;;;;10.63;6.55;;;;;;;;;;5055885;28;20041;-73
2023/07/27 02:51:02;;;;;;;9.45;5.93;;;;;;;;;;5049560;28;20053;-73
2023/07/27 02:53:28;;;;;;;9.88;5.95;;;;;;;;;;5054659;28;20055;-74
2023/07/27 02:55:56;;;;;;;8.77;5.90;;;;;;;;;;5054634;28;20403;-74
2023/07/27 02:58:22;;;;;;;9.55;6.70;;;;;;;;;;5046535;28;20049;-73
2023/07/27 03:00:52;;;;;;;9.63;6.40;;;;;;;;;;5054038;28;20048;-74
2023/07/27 03:03:18;;;;;;;10.18;6.00;;;;;;;;;;5054825;28;20097;-73
2023/07/27 03:05:44;;;;;;;10.68;6.85;;;;;;;;;;5044497;28;20037;-73
2023/07/27 03:08:10;;;;;;;10.30;6.32;;;;;;;;;;5034926;28;20049;-74
2023/07/27 03:10:36;;;;;;;11.32;7.07;;;;;;;;;;5036315;28;20052;-74
2023/07/27 03:13:02;;;;;;;9.30;6.35;;;;;;;;;;5042989;28;20110;-74
2023/07/27 03:15:28;;;;;;;8.32;5.75;;;;;;;;;;5041839;28;20045;-74
2023/07/27 03:17:55;;;;;;;10.52;6.28;;;;;;;;;;5034577;28;20500;-74
2023/07/27 03:20:21;;;;;;;8.80;6.55;;;;;;;;;;5034506;28;20141;-74
2023/07/27 03:22:47;;;;;;;10.10;6.05;;;;;;;;;;5034213;28;20050;-73
2023/07/27 03:25:13;;;;;;;11.38;6.07;;;;;;;;;;5035427;28;20041;-74
2023/07/27 03:27:39;;;;;;;8.52;6.05;;;;;;;;;;5043026;28;20040;-74
2023/07/27 03:30:05;;;;;;;9.38;6.78;;;;;;;;;;5038601;28;20049;-74
2023/07/27 03:32:31;;;;;;;11.60;6.85;;;;;;;;;;5055661;28;20040;-74
2023/07/27 03:34:57;;;;;;;10.80;6.88;;;;;;;;;;5055239;28;20041;-74
2023/07/27 03:37:23;;;;;;;10.25;6.30;;;;;;;;;;5054927;28;20083;-74
2023/07/27 03:39:49;;;;;;;10.15;6.38;;;;;;;;;;5055026;28;20076;-73
2023/07/27 03:42:15;;;;;;;10.85;6.75;;;;;;;;;;5049447;28;20186;-73
2023/07/27 03:44:43;;;;;;;9.20;6.97;;;;;;;;;;5038103;28;20082;-74
2023/07/27 03:47:09;;;;;;;9.18;6.97;;;;;;;;;;5035120;28;20076;-74
2023/07/27 03:49:36;;;;;;;8.85;6.22;;;;;;;;;;5035388;28;20136;-74
2023/07/27 03:52:02;;;;;;;10.65;6.80;;;;;;;;;;5034888;28;20337;-74
2023/07/27 03:54:28;;;;;;;10.50;7.15;;;;;;;;;;5034980;28;20340;-73
2023/07/27 03:56:54;;;;;;;11.00;6.55;;;;;;;;;;5038866;28;20398;-73
2023/07/27 03:59:20;;;;;;;11.90;7.18;;;;;;;;;;5051474;28;20073;-73
2023/07/27 04:01:46;;;;;;;8.88;6.43;;;;;;;;;;5050561;28;20464;-74
2023/07/27 04:04:13;;;;;;;10.25;7.10;;;;;;;;;;5040730;28;20053;-74
2023/07/27 04:06:39;;;;;;;11.82;7.22;;;;;;;;;;5050755;28;20554;-73
2023/07/27 04:09:05;;;;;;;10.93;7.28;;;;;;;;;;5053421;28;20048;-73
2023/07/27 04:11:34;;;;;;;12.85;7.82;;;;;;;;;;5054665;28;20054;-74
2023/07/27 04:14:00;;;;;;;10.98;7.72;;;;;;;;;;5037414;28;20073;-74
2023/07/27 04:16:27;;;;;;;10.48;7.50;;;;;;;;;;5054078;28;20045;-74
2023/07/27 04:18:53;;;;;;;11.45;8.00;;;;;;;;;;5052941;28;20041;-74
2023/07/27 04:21:19;;;;;;;16.70;8.20;;;;;;;;;;5053067;28;20375;-74
2023/07/27 04:23:45;;;;;;;13.88;7.38;;;;;;;;;;5046270;28;20480;-74
2023/07/27 04:26:11;;;;;;;11.95;8.10;;;;;;;;;;5039094;28;20142;-74
2023/07/27 04:28:37;;;;;;;11.60;7.93;;;;;;;;;;5042171;28;20037;-74
2023/07/27 04:31:03;;;;;;;12.15;8.30;;;;;;;;;;5041609;28;20053;-74
2023/07/27 04:33:30;;;;;;;13.23;8.23;;;;;;;;;;5032943;28;20114;-74
2023/07/27 04:36:02;;;;;;;12.23;8.63;;;;;;;;;;5032525;28;20057;-74
2023/07/27 04:38:29;;;;;;;16.45;9.70;;;;;;;;;;5039312;28;20049;-74
2023/07/27 04:40:55;;;;;;;13.68;8.70;;;;;;;;;;5052591;28;20468;-73
2023/07/27 04:43:21;;;;;;;14.48;8.98;;;;;;;;;;5036388;28;20409;-73
2023/07/27 04:45:47;;;;;;;12.45;8.48;;;;;;;;;;5045175;28;20049;-73
2023/07/27 04:48:13;;;;;;;12.48;8.52;;;;;;;;;;5039479;28;20057;-73
2023/07/27 04:50:39;;;;;;;16.27;9.63;;;;;;;;;;5053419;28;20053;-73
2023/07/27 04:53:05;;;;;;;15.05;9.35;;;;;;;;;;5052237;28;20056;-73
2023/07/27 04:55:31;;;;;;;15.50;9.63;;;;;;;;;;5052311;28;20055;-73
2023/07/27 04:57:57;;;;;;;14.30;10.32;;;;;;;;;;5051698;28;20120;-73
2023/07/27 05:00:23;;;;;;;15.93;9.65;;;;;;;;;;5049974;28;20136;-73
2023/07/27 05:02:49;;;;;;;14.98;10.07;;;;;;;;;;5032117;28;20045;-73
2023/07/27 05:05:15;;;;;;;14.98;9.45;;;;;;;;;;5032970;28;20111;-73
2023/07/27 05:07:42;;;;;;;15.93;10.02;;;;;;;;;;5045276;28;20052;-72
2023/07/27 05:10:08;;;;;;;18.35;10.43;;;;;;;;;;5053627;28;20102;-72
2023/07/27 05:12:34;;;;;;;13.93;9.55;;;;;;;;;;5045994;28;20049;-72
2023/07/27 05:15:00;;;;;;;14.88;9.75;;;;;;;;;;5046009;28;20054;-73
2023/07/27 05:17:26;;;;;;;15.68;10.27;;;;;;;;;;5033248;28;20595;-73
2023/07/27 05:19:56;;;;;;;15.27;9.27;;;;;;;;;;5032013;28;20380;-73
2023/07/27 05:22:22;;;;;;;14.82;10.23;;;;;;;;;;5032128;28;20460;-73
2023/07/27 05:24:48;;;;;;;15.00;10.07;;;;;;;;;;5032420;28;20037;-73
2023/07/27 05:27:14;;;;;;;16.10;9.88;;;;;;;;;;5032370;28;20120;-73
2023/07/27 05:29:41;;;;;;;15.18;10.35;;;;;;;;;;5044800;28;20036;-73
2023/07/27 05:32:08;;;;;;;15.60;10.07;;;;;;;;;;5040101;28;20060;-73
2023/07/27 05:34:34;;;;;;;13.93;10.45;;;;;;;;;;5038926;28;20484;-73
2023/07/27 05:37:01;;;;;;;14.73;9.63;;;;;;;;;;5054079;28;20057;-73
2023/07/27 05:39:29;;;;;;;16.33;9.70;;;;;;;;;;5033999;28;20049;-74
2023/07/27 05:41:55;;;;;;;16.35;10.52;;;;;;;;;;5037963;28;20425;-73
2023/07/27 05:44:21;;;;;;;15.77;10.52;;;;;;;;;;5043021;28;20099;-73
2023/07/27 05:46:48;;;;;;;15.25;10.38;;;;;;;;;;5051665;28;20045;-73
2023/07/27 05:49:14;;;;;;;15.13;9.82;;;;;;;;;;5051608;28;20430;-73
2023/07/27 05:51:40;;;;;;;16.65;10.10;;;;;;;;;;5045286;28;20065;-73
2023/07/27 05:54:06;;;;;;;17.27;11.07;;;;;;;;;;5039027;28;20057;-73
2023/07/27 05:56:32;;;;;;;17.42;10.60;;;;;;;;;;5034976;28;20058;-73
2023/07/27 05:58:58;;;;;;;15.88;10.05;;;;;;;;;;5031567;28;20053;-73
2023/07/27 06:01:24;;;;;;;15.75;10.05;;;;;;;;;;5036463;28;20104;-73
2023/07/27 06:03:50;;;;;;;15.95;9.10;;;;;;;;;;5047934;28;20080;-73
2023/07/27 06:06:16;;;;;;;16.95;9.45;;;;;;;;;;5038747;28;20049;-73
2023/07/27 06:08:42;;;;;;;12.98;9.00;;;;;;;;;;5040621;28;20041;-73
2023/07/27 06:11:09;;;;;;;12.73;8.93;;;;;;;;;;5042081;28;20051;-73
2023/07/27 06:13:36;;;;;;;13.23;8.77;;;;;;;;;;5039521;28;20092;-74
2023/07/27 06:16:02;;;;;;;13.25;8.63;;;;;;;;;;5038443;28;20052;-74
2023/07/27 06:18:28;;;;;;;11.88;8.55;;;;;;;;;;5037230;28;20119;-74
2023/07/27 06:20:54;;;;;;;13.02;9.27;;;;;;;;;;5040305;28;20069;-74
2023/07/27 06:23:20;;;;;;;12.50;8.85;;;;;;;;;;5056621;28;20399;-74
2023/07/27 06:25:48;;;;;;;11.93;8.43;;;;;;;;;;5056577;28;20045;-74
2023/07/27 06:28:14;;;;;;;11.60;8.25;;;;;;;;;;5056448;28;20060;-74
2023/07/27 06:30:40;;;;;;;11.77;8.75;;;;;;;;;;5055648;28;20367;-74
2023/07/27 06:33:06;;;;;;;14.52;9.05;;;;;;;;;;5056032;28;20451;-74
2023/07/27 06:35:32;;;;;;;13.10;8.50;;;;;;;;;;5054207;28;20047;-74
2023/07/27 06:37:59;;;;;;;13.00;9.10;;;;;;;;;;5056466;28;20051;-74
2023/07/27 06:40:25;;;;;;;13.00;8.43;;;;;;;;;;5053035;28;20053;-74
2023/07/27 06:42:51;;;;;;;14.52;9.20;;;;;;;;;;5042865;28;20037;-74
2023/07/27 06:45:17;;;;;;;13.85;8.68;;;;;;;;;;5055053;28;20170;-74
2023/07/27 06:47:43;;;;;;;12.02;8.20;;;;;;;;;;5050130;28;20033;-74
2023/07/27 06:50:10;;;;;;;10.90;7.70;;;;;;;;;;5047116;28;20434;-74
2023/07/27 06:52:36;;;;;;;12.25;7.80;;;;;;;;;;5036521;28;20077;-74
2023/07/27 06:55:02;;;;;;;11.90;8.13;;;;;;;;;;5035171;28;20049;-74
2023/07/27 06:57:28;;;;;;;11.23;8.07;;;;;;;;;;5039821;28;20045;-74
2023/07/27 06:59:54;;;;;;;10.02;7.43;;;;;;;;;;5054667;28;20345;-74
2023/07/27 07:02:20;;;;;;;9.90;7.10;;;;;;;;;;5043866;28;20081;-75
2023/07/27 07:04:47;;;;;;;11.80;7.47;;;;;;;;;;5037773;28;20045;-74
2023/07/27 07:07:14;;;;;;;11.02;7.10;;;;;;;;;;5043645;28;20044;-74
2023/07/27 07:09:40;;;;;;;8.80;6.82;;;;;;;;;;5078291;28;20125;-74
2023/07/27 07:12:07;;;;;;;11.23;7.72;;;;;;;;;;5064110;28;20598;-75
2023/07/27 07:14:33;;;;;;;9.43;7.68;;;;;;;;;;5082889;28;20509;-77
2023/07/27 07:16:59;;;;;;;10.60;7.55;;;;;;;;;;5074091;28;20098;-76
2023/07/27 07:19:25;;;;;;;11.25;6.93;;;;;;;;;;5075568;28;20047;-77
2023/07/27 07:21:52;;;;;;;9.30;7.13;;;;;;;;;;5071227;28;20051;-74
2023/07/27 07:24:18;;;;;;;9.30;6.40;;;;;;;;;;5059686;28;20071;-74
2023/07/27 07:26:45;;;;;;;8.77;6.55;;;;;;;;;;5066979;28;20056;-73
2023/07/27 07:29:11;;;;;;;8.68;6.85;;;;;;;;;;5067808;28;20047;-75
2023/07/27 07:31:38;;;;;;;8.50;6.57;;;;;;;;;;5055455;28;20045;-75
2023/07/27 07:34:04;;;;;;;7.93;6.65;;;;;;;;;;5054100;28;20045;-75
2023/07/27 07:36:30;;;;;;;9.05;6.78;;;;;;;;;;5056924;28;20044;-78
2023/07/27 07:38:56;;;;;;;7.57;6.30;;;;;;;;;;5060158;28;20048;-75
2023/07/27 07:41:22;;;;;;;7.95;6.10;;;;;;;;;;5066765;28;20040;-75
2023/07/27 07:43:48;;;;;;;8.45;6.28;;;;;;;;;;5075418;28;20079;-75
2023/07/27 07:46:15;;;;;;;10.02;6.25;;;;;;;;;;5066466;28;20433;-75
2023/07/27 07:48:41;;;;;;;9.32;6.63;;;;;;;;;;5074605;28;20120;-75
2023/07/27 07:51:14;;;;;;;8.50;6.07;;;;;;;;;;5073089;28;20044;-75
2023/07/27 07:53:40;;;;;;;6.88;5.88;;;;;;;;;;5062830;28;20411;-75
2023/07/27 07:56:12;;;;;;;6.90;5.75;;;;;;;;;;5063753;28;20051;-75
2023/07/27 07:58:38;;;;;;;8.75;6.40;;;;;;;;;;5071373;28;20071;-75
2023/07/27 08:01:05;;;;;;;6.88;5.72;;;;;;;;;;5074829;28;20101;-74
2023/07/27 08:03:31;;;;;;;7.57;5.90;;;;;;;;;;5067176;28;20119;-75
2023/07/27 08:05:57;;;;;;;7.20;5.28;;;;;;;;;;5050697;28;20059;-75
2023/07/27 08:08:24;;;;;;;5.97;5.15;;;;;;;;;;5047794;28;20095;-75
2023/07/27 08:10:51;;;;;;;7.40;5.13;;;;;;;;;;5052336;28;20094;-75
2023/07/27 08:13:17;;;;;;;7.63;5.88;;;;;;;;;;5052438;28;20087;-75
2023/07/27 08:15:51;;;;;;;6.82;4.93;;;;;;;;;;5053793;28;20511;-75
2023/07/27 08:18:17;;;;;;;6.18;4.78;;;;;;;;;;5066659;28;20053;-75
2023/07/27 08:20:43;;;;;;;4.95;4.30;;;;;;;;;;5058660;28;20075;-75
2023/07/27 08:23:09;;;;;;;4.95;4.25;;;;;;;;;;5072899;28;20037;-75
2023/07/27 08:25:39;;;;;;;5.93;3.85;;;;;;;;;;5069607;28;20036;-77
2023/07/27 08:28:05;;;;;;;4.72;3.65;;;;;;;;;;5064890;28;20076;-74
2023/07/27 08:30:34;;;;;;;4.95;4.03;;;;;;;;;;5059862;28;20060;-74
2023/07/27 08:33:00;;;;;;;4.22;3.42;;;;;;;;;;5071607;28;20479;-75
2023/07/27 08:35:26;;;;;;;4.28;3.63;;;;;;;;;;5073318;28;20051;-74
2023/07/27 08:37:52;;;;;;;4.05;3.53;;;;;;;;;;5073393;28;20479;-75
2023/07/27 08:40:19;;;;;;;4.05;3.25;;;;;;;;;;5073009;28;20448;-75
2023/07/27 08:42:45;;;;;;;4.18;3.60;;;;;;;;;;5074020;28;20048;-75
2023/07/27 08:45:14;;;;;;;3.97;3.58;;;;;;;;;;5071373;28;20510;-75
2023/07/27 08:47:41;;;;;;;5.03;3.60;;;;;;;;;;5059952;28;20033;-75
2023/07/27 08:50:07;;;;;;;4.22;3.58;;;;;;;;;;5063487;28;20041;-75
2023/07/27 08:52:33;;;;;;;3.42;3.08;;;;;;;;;;5067055;28;20044;-75
2023/07/27 08:54:59;;;;;;;3.88;3.45;;;;;;;;;;5055147;28;20072;-75
2023/07/27 08:57:26;;;;;;;3.22;2.92;;;;;;;;;;5057867;28;20036;-75
2023/07/27 08:59:52;;;;;;;3.70;3.03;;;;;;;;;;5061288;28;20040;-74
2023/07/27 09:02:18;;;;;;;3.13;2.63;;;;;;;;;;5070281;28;20044;-74
2023/07/27 09:04:44;;;;;;;2.60;2.40;;;;;;;;;;5076306;28;20045;-75
2023/07/27 09:07:10;;;;;;;3.25;2.78;;;;;;;;;;5071074;28;20123;-74
2023/07/27 09:09:36;;;;;;;3.75;2.83;;;;;;;;;;5072443;28;20491;-75
2023/07/27 09:12:06;;;;;;;3.63;2.60;;;;;;;;;;5073066;28;20052;-75
2023/07/27 09:14:36;;;;;;;3.28;2.50;;;;;;;;;;5068963;28;20045;-75
2023/07/27 09:17:02;;;;;;;3.15;2.53;;;;;;;;;;5058113;28;20055;-74
2023/07/27 09:19:33;;;;;;;3.33;2.60;;;;;;;;;;5073140;28;20083;-74
2023/07/27 09:21:59;;;;;;;3.22;2.33;;;;;;;;;;5067866;28;20037;-74
2023/07/27 09:24:30;;;;;;;2.92;2.47;;;;;;;;;;5072272;28;20135;-74
2023/07/27 09:26:56;;;;;;;3.25;2.65;;;;;;;;;;5070671;28;20044;-74
2023/07/27 09:29:22;;;;;;;3.40;2.70;;;;;;;;;;5061797;28;20047;-75
2023/07/27 09:31:49;;;;;;;3.42;2.72;;;;;;;;;;5071936;28;20044;-75
2023/07/27 09:34:16;;;;;;;3.20;2.90;;;;;;;;;;5062009;28;20052;-75
2023/07/27 09:36:42;;;;;;;2.97;2.40;;;;;;;;;;5052781;28;20135;-75
2023/07/27 09:39:09;;;;;;;2.60;2.40;;;;;;;;;;5068321;28;20055;-74
2023/07/27 09:41:35;;;;;;;2.40;2.20;;;;;;;;;;5053196;28;20052;-77
2023/07/27 09:44:02;;;;;;;2.60;2.30;;;;;;;;;;5065352;28;20040;-75
2023/07/27 09:46:29;;;;;;;2.67;2.40;;;;;;;;;;5060732;28;20444;-80
2023/07/27 09:48:59;;;;;;;2.50;2.20;;;;;;;;;;5057048;28;20122;-75
2023/07/27 09:51:28;;;;;;;2.58;2.20;;;;;;;;;;5056525;28;20053;-78
2023/07/27 09:53:55;;;;;;;2.20;2.00;;;;;;;;;;5056601;28;20434;-75
2023/07/27 09:56:21;;;;;;;2.00;1.77;;;;;;;;;;5055051;28;20052;-74
2023/07/27 09:58:47;;;;;;;2.80;2.00;;;;;;;;;;5053413;28;20045;-74
2023/07/27 10:01:13;;;;;;;2.10;1.90;;;;;;;;;;5061352;28;20471;-76
2023/07/27 10:03:40;;;;;;;2.10;1.90;;;;;;;;;;5068879;28;20094;-75
2023/07/27 10:06:06;;;;;;;2.53;2.30;;;;;;;;;;5069817;28;20045;-75
2023/07/27 10:08:35;;;;;;;2.40;2.00;;;;;;;;;;5066220;28;20047;-75
2023/07/27 10:11:02;;;;;;;3.25;1.88;;;;;;;;;;5053314;28;20500;-75
2023/07/27 10:13:28;;;;;;;2.30;2.10;;;;;;;;;;5061540;28;20095;-75
2023/07/27 10:15:54;;;;;;;2.40;2.13;;;;;;;;;;5070110;28;20036;-75
2023/07/27 10:18:21;;;;;;;3.20;2.38;;;;;;;;;;5063890;28;20115;-75
2023/07/27 10:20:47;;;;;;;3.13;2.20;;;;;;;;;;5072039;28;20053;-75
2023/07/27 10:23:13;;;;;;;2.80;2.28;;;;;;;;;;5058526;28;20044;-75
2023/07/27 10:26:06;;;;;;;3.58;2.50;;;;;;;;;;5052522;28;20080;-75
2023/07/27 10:28:35;;;;;;;2.40;2.20;;;;;;;;;;5050240;28;20072;-75
2023/07/27 10:31:20;;;;;;;3.20;2.67;;;;;;;;;;5052843;28;20041;-75
2023/07/27 10:33:47;;;;;;;2.80;2.60;;;;;;;;;;5052539;28;20056;-75
2023/07/27 10:36:14;;;;;;;2.63;2.42;;;;;;;;;;5060134;28;20140;-75
2023/07/27 10:38:40;;;;;;;2.70;2.45;;;;;;;;;;5065217;28;20488;-76
2023/07/27 10:41:13;;;;;;;3.05;2.70;;;;;;;;;;5061875;28;20390;-75
2023/07/27 10:43:59;;;;;;;4.85;2.50;;;;;;;;;;5071526;28;20105;-74
2023/07/27 10:46:25;;;;;;;3.28;2.70;;;;;;;;;;5072683;28;20040;-74
2023/07/27 10:48:58;;;;;;;3.33;3.00;;;;;;;;;;5072343;28;20115;-75
2023/07/27 10:51:28;;;;;;;3.45;2.63;;;;;;;;;;5068161;28;20041;-75
2023/07/27 10:53:54;;;;;;;3.85;3.03;;;;;;;;;;5062866;28;20037;-76
2023/07/27 10:56:21;;;;;;;4.35;3.25;;;;;;;;;;5076025;28;20131;-75
2023/07/27 10:58:48;;;;;;;4.03;3.40;;;;;;;;;;5069956;28;20124;-75
2023/07/27 11:01:14;;;;;;;4.00;3.00;;;;;;;;;;5066903;28;20041;-75
2023/07/27 11:03:41;;;;;;;3.40;2.90;;;;;;;;;;5069077;28;20044;-75
2023/07/27 11:06:07;;;;;;;3.53;3.15;;;;;;;;;;5073284;28;20052;-74
2023/07/27 11:08:40;;;;;;;3.80;3.35;;;;;;;;;;5074640;28;20044;-74
2023/07/27 11:11:20;;;;;;;3.47;2.92;;;;;;;;;;5076177;28;20141;-74
2023/07/27 11:13:46;;;;;;;3.53;3.17;;;;;;;;;;5067829;28;20041;-74
2023/07/27 11:16:13;;;;;;;3.97;3.58;;;;;;;;;;5057204;28;20068;-74
2023/07/27 11:18:43;;;;;;;4.07;3.60;;;;;;;;;;5056581;28;20044;-74
2023/07/27 11:21:12;;;;;;;4.10;3.70;;;;;;;;;;5055670;28;20460;-74
2023/07/27 11:23:47;;;;;;;4.38;3.95;;;;;;;;;;5060166;28;20049;-74
2023/07/27 11:26:14;;;;;;;4.95;3.58;;;;;;;;;;5074699;28;20057;-74
2023/07/27 11:28:40;;;;;;;4.32;3.92;;;;;;;;;;5074872;28;20041;-74
2023/07/27 11:31:09;;;;;;;6.03;4.05;;;;;;;;;;5072324;28;20040;-74
2023/07/27 11:33:36;;;;;;;5.28;4.40;;;;;;;;;;5072550;28;20139;-75
2023/07/27 11:36:04;;;;;;;4.55;3.90;;;;;;;;;;5075016;28;20087;-74
2023/07/27 11:38:30;;;;;;;4.45;4.05;;;;;;;;;;5069585;28;20072;-73
2023/07/27 11:40:57;;;;;;;3.80;3.45;;;;;;;;;;5073853;28;20052;-74
2023/07/27 11:43:27;;;;;;;4.90;3.83;;;;;;;;;;5074268;28;20080;-74
2023/07/27 11:45:56;;;;;;;4.28;3.88;;;;;;;;;;5072351;28;20352;-75
2023/07/27 11:48:27;;;;;;;4.85;4.30;;;;;;;;;;5075338;28;20123;-74
2023/07/27 11:50:54;;;;;;;4.18;3.78;;;;;;;;;;5074024;28;20041;-75
2023/07/27 11:53:23;;;;;;;4.28;3.88;;;;;;;;;;5068732;28;20040;-75
2023/07/27 11:55:49;;;;;;;4.10;3.70;;;;;;;;;;5073202;28;20139;-74
2023/07/27 11:58:15;;;;;;;3.90;3.60;;;;;;;;;;5074658;28;20044;-75
2023/07/27 12:00:46;;;;;;;4.90;4.00;;;;;;;;;;5069969;28;20058;-74
2023/07/27 12:03:13;;;;;;;4.28;3.88;;;;;;;;;;5055230;28;20048;-74
2023/07/27 12:05:39;;;;;;;5.07;4.57;;;;;;;;;;5054824;28;20052;-74
2023/07/27 12:08:05;;;;;;;4.97;4.47;;;;;;;;;;5055185;28;20045;-74
2023/07/27 12:10:31;;;;;;;4.70;4.20;;;;;;;;;;5068389;28;20159;-74
2023/07/27 12:13:01;;;;;;;5.20;4.70;;;;;;;;;;5074219;28;20060;-74
2023/07/27 12:15:31;;;;;;;5.13;4.63;;;;;;;;;;5071020;28;20356;-78
2023/07/27 12:17:58;;;;;;;5.55;5.00;;;;;;;;;;5065266;28;20052;-74
2023/07/27 12:20:25;;;;;;;5.40;4.90;;;;;;;;;;5070099;28;20135;-74
2023/07/27 12:22:51;;;;;;;5.57;5.07;;;;;;;;;;5074378;28;20467;-75
2023/07/27 12:25:17;;;;;;;5.70;5.20;;;;;;;;;;5061712;28;20505;-75
2023/07/27 12:27:43;;;;;;;5.90;5.40;;;;;;;;;;5060914;28;20045;-75
2023/07/27 12:30:10;;;;;;;5.88;5.30;;;;;;;;;;5060211;28;20041;-75
2023/07/27 12:32:36;;;;;;;6.15;5.57;;;;;;;;;;5060768;28;20080;-74
2023/07/27 12:35:03;;;;;;;5.60;5.10;;;;;;;;;;5058924;28;20056;-75
2023/07/27 12:37:29;;;;;;;6.22;5.72;;;;;;;;;;5054362;28;20138;-75
2023/07/27 12:39:55;;;;;;;6.35;5.70;;;;;;;;;;5070782;28;20076;-74
2023/07/27 12:42:21;;;;;;;6.50;5.90;;;;;;;;;;5064946;28;20094;-74
2023/07/27 12:44:47;;;;;;;5.90;5.35;;;;;;;;;;5069677;28;20048;-74
2023/07/27 12:47:13;;;;;;;5.40;4.90;;;;;;;;;;5074080;28;20049;-74
2023/07/27 12:49:39;;;;;;;6.05;5.55;;;;;;;;;;5062424;28;20040;-75
2023/07/27 12:52:06;;;;;;;6.28;5.68;;;;;;;;;;5061176;28;20091;-75
2023/07/27 12:54:32;;;;;;;6.20;5.60;;;;;;;;;;5054342;28;20094;-78
2023/07/27 12:56:58;;;;;;;6.13;5.55;;;;;;;;;;5062581;28;20478;-76
2023/07/27 12:59:27;;;;;;;5.63;5.13;;;;;;;;;;5059083;28;20056;-75
2023/07/27 13:01:53;;;;;;;5.80;5.30;;;;;;;;;;5063461;28;20055;-74
2023/07/27 13:04:19;;;;;;;5.03;4.53;;;;;;;;;;5073653;28;20041;-74
2023/07/27 13:06:46;;;;;;;4.82;4.32;;;;;;;;;;5072473;28;20120;-74
2023/07/27 13:09:12;;;;;;;4.38;3.97;;;;;;;;;;5067754;28;20037;-75
2023/07/27 13:11:38;;;;;;;5.85;4.25;;;;;;;;;;5070617;28;20052;-77
2023/07/27 13:14:05;;;;;;;4.78;3.80;;;;;;;;;;5044504;28;20052;-77
2023/07/27 13:16:35;;;;;;;4.78;4.28;;;;;;;;;;5070410;28;20124;-75
2023/07/27 13:19:02;;;;;;;4.25;3.85;;;;;;;;;;5072210;28;20048;-75
2023/07/27 13:21:28;;;;;;;4.53;4.13;;;;;;;;;;5066881;28;20451;-76
2023/07/27 13:23:54;;;;;;;3.90;3.50;;;;;;;;;;5073585;28;20546;-76
2023/07/27 13:26:20;;;;;;;3.88;3.50;;;;;;;;;;5082893;28;20036;-76
2023/07/27 13:28:47;;;;;;;3.75;3.40;;;;;;;;;;5058168;28;20079;-77
2023/07/27 13:31:14;;;;;;;3.42;2.80;;;;;;;;;;5055640;28;20045;-77
2023/07/27 13:33:40;;;;;;;3.20;2.90;;;;;;;;;;5073603;28;20056;-76
2023/07/27 13:36:06;;;;;;;2.92;2.47;;;;;;;;;;5069975;28;20041;-76
2023/07/27 13:38:32;;;;;;;2.80;2.60;;;;;;;;;;5072047;28;20147;-76
2023/07/27 13:40:58;;;;;;;2.63;2.42;;;;;;;;;;5071222;28;20515;-76
2023/07/27 13:43:24;;;;;;;3.97;2.80;;;;;;;;;;5055618;28;20375;-76
2023/07/27 13:45:51;;;;;;;5.40;2.78;;;;;;;;;;5051867;28;20052;-76
2023/07/27 13:48:17;;;;;;;2.42;2.22;;;;;;;;;;5049622;28;20056;-76
2023/07/27 13:50:44;;;;;;;2.65;2.45;;;;;;;;;;5049430;28;20079;-76
2023/07/27 13:53:10;;;;;;;2.80;2.53;;;;;;;;;;5061725;28;20395;-76
2023/07/27 13:55:36;;;;;;;2.53;2.20;;;;;;;;;;5059340;28;20079;-82
2023/07/27 13:58:02;;;;;;;1.75;1.60;;;;;;;;;;5061749;28;20067;-76
2023/07/27 14:00:28;;;;;;;1.50;1.40;;;;;;;;;;5055423;28;20106;-76
2023/07/27 14:02:55;;;;;;;1.23;1.10;;;;;;;;;;5061350;28;20090;-77
2023/07/27 14:05:21;;;;;;;1.35;1.25;;;;;;;;;;5058366;28;20098;-76
2023/07/27 14:07:48;;;;;;;1.60;1.50;;;;;;;;;;5059770;28;20045;-75
2023/07/27 14:10:14;;;;;;;1.63;1.35;;;;;;;;;;5055265;28;20124;-75
2023/07/27 14:12:41;;;;;;;1.77;1.67;;;;;;;;;;5054982;28;20402;-75
2023/07/27 14:15:07;;;;;;;1.83;1.60;;;;;;;;;;5056901;28;20052;-75
2023/07/27 14:17:34;;;;;;;1.95;1.40;;;;;;;;;;5061143;28;20511;-75
2023/07/27 14:20:00;;;;;;;1.30;1.20;;;;;;;;;;5065080;28;20410;-75
2023/07/27 14:22:26;;;;;;;2.03;1.55;;;;;;;;;;5059464;28;20049;-75
2023/07/27 14:24:52;;;;;;;1.67;1.58;;;;;;;;;;5057014;28;20044;-76
2023/07/27 14:27:20;;;;;;;1.60;1.50;;;;;;;;;;5074410;28;20056;-76
2023/07/27 14:29:47;;;;;;;1.45;1.35;;;;;;;;;;5076562;28;20364;-75
2023/07/27 14:32:13;;;;;;;1.70;1.60;;;;;;;;;;5075781;28;20418;-75
2023/07/27 14:34:39;;;;;;;1.30;1.20;;;;;;;;;;5069019;28;20049;-75